^^
TXWeather Station Historical Data
Daily Summary for January 12, 2022 Units:  English    Metric   Both
Daily Weekly Monthly Yearly Custom
  High: Low: Average:
Temperature: 63.0 °F 47.0 °F 52.7 °F
Dew Point: 47.0 °F 39.0 °F 42.6 °F
Humidity: 81% 53% 69%
Wind Speed: 7mph 0mph 2.2mph
Wind Gust: 8mph - -
Wind- - SE
Pressure: 30.5 in 30.3 in -
Precipitation: 0.000 in    
Historical Graphs
 
 
Tabular Data for January 12, 2022
Time Temperature Dew Point Pressure Wind Wind Speed Wind Gust Humidity Rainfall Rate (Hourly) solar
00:04 48.0 °F 39.0 °F 30.5 in East 1 mph 2 mph 70% 0.000 in 0.00 W/m2
00:09 48.0 °F 39.0 °F 30.5 in East 2 mph 2 mph 70% 0.000 in 0.00 W/m2
00:14 48.0 °F 39.0 °F 30.5 in East 1 mph 2 mph 70% 0.000 in 0.00 W/m2
00:19 48.0 °F 39.0 °F 30.5 in East 2 mph 2 mph 70% 0.000 in 0.00 W/m2
00:24 48.0 °F 39.0 °F 30.5 in East 2 mph 2 mph 70% 0.000 in 0.00 W/m2
00:29 48.0 °F 39.0 °F 30.5 in East 2 mph 2 mph 70% 0.000 in 0.00 W/m2
00:34 48.0 °F 39.0 °F 30.5 in SW 2 mph 2 mph 70% 0.000 in 0.00 W/m2
00:39 48.0 °F 39.0 °F 30.5 in SW 1 mph 2 mph 70% 0.000 in 0.00 W/m2
00:44 48.0 °F 39.0 °F 30.5 in Calm     71% 0.000 in 0.00 W/m2
00:49 48.0 °F 39.0 °F 30.5 in SW 1 mph 1 mph 71% 0.000 in 0.00 W/m2
00:54 48.0 °F 39.0 °F 30.5 in SW 1 mph 1 mph 71% 0.000 in 0.00 W/m2
00:59 48.0 °F 39.0 °F 30.5 in SW 1 mph 1 mph 71% 0.000 in 0.00 W/m2
01:04 48.0 °F 39.0 °F 30.5 in SSW 4 mph 4 mph 72% 0.000 in 0.00 W/m2
01:09 48.0 °F 39.0 °F 30.4 in SSE 5 mph 5 mph 72% 0.000 in 0.00 W/m2
01:14 48.0 °F 39.0 °F 30.4 in SSE 3 mph 3 mph 72% 0.000 in 0.00 W/m2
01:19 48.0 °F 39.0 °F 30.4 in SSE 1 mph 1 mph 72% 0.000 in 0.00 W/m2
01:24 48.0 °F 40.0 °F 30.4 in SSE 1 mph 1 mph 73% 0.000 in 0.00 W/m2
01:29 48.0 °F 40.0 °F 30.4 in SSE 1 mph 1 mph 73% 0.000 in 0.00 W/m2
01:34 48.0 °F 40.0 °F 30.4 in Calm     73% 0.000 in 0.00 W/m2
01:39 48.0 °F 40.0 °F 30.4 in SSE 1 mph 1 mph 73% 0.000 in 0.00 W/m2
01:44 48.0 °F 40.0 °F 30.4 in SSE 1 mph 1 mph 74% 0.000 in 0.00 W/m2
01:49 48.0 °F 40.0 °F 30.4 in Calm     75% 0.000 in 0.00 W/m2
01:54 48.0 °F 40.0 °F 30.4 in Calm   1 mph 75% 0.000 in 0.00 W/m2
01:59 48.0 °F 41.0 °F 30.4 in South 4 mph 4 mph 76% 0.000 in 0.00 W/m2
02:04 48.0 °F 41.0 °F 30.4 in NNW 4 mph 4 mph 77% 0.000 in 0.00 W/m2
02:09 48.0 °F 41.0 °F 30.4 in NW 2 mph 3 mph 78% 0.000 in 0.00 W/m2
02:14 48.0 °F 41.0 °F 30.4 in NW 2 mph 2 mph 78% 0.000 in 0.00 W/m2
02:19 48.0 °F 41.0 °F 30.4 in North 3 mph 3 mph 79% 0.000 in 0.00 W/m2
02:24 48.0 °F 41.0 °F 30.4 in NE 3 mph 3 mph 79% 0.000 in 0.00 W/m2
02:29 48.0 °F 41.0 °F 30.4 in NE 3 mph 3 mph 79% 0.000 in 0.00 W/m2
02:34 47.0 °F 41.0 °F 30.4 in NE 3 mph 3 mph 80% 0.000 in 0.00 W/m2
02:39 47.0 °F 41.0 °F 30.4 in NE 3 mph 3 mph 80% 0.000 in 0.00 W/m2
02:44 47.0 °F 41.0 °F 30.4 in NNE 4 mph 4 mph 80% 0.000 in 0.00 W/m2
02:49 47.0 °F 41.0 °F 30.4 in NE 5 mph 5 mph 80% 0.000 in 0.00 W/m2
02:54 47.0 °F 41.0 °F 30.4 in NNE 5 mph 5 mph 81% 0.000 in 0.00 W/m2
02:59 47.0 °F 41.0 °F 30.4 in North 4 mph 5 mph 81% 0.000 in 0.00 W/m2
03:04 47.0 °F 41.0 °F 30.4 in NNE 4 mph 4 mph 81% 0.000 in 0.00 W/m2
03:09 47.0 °F 41.0 °F 30.4 in North 5 mph 5 mph 81% 0.000 in 0.00 W/m2
03:14 47.0 °F 41.0 °F 30.4 in NNE 4 mph 5 mph 81% 0.000 in 0.00 W/m2
03:19 47.0 °F 41.0 °F 30.4 in NNE 4 mph 4 mph 81% 0.000 in 0.00 W/m2
03:24 47.0 °F 41.0 °F 30.4 in NNE 3 mph 4 mph 81% 0.000 in 0.00 W/m2
03:29 47.0 °F 41.0 °F 30.4 in NNE 4 mph 4 mph 81% 0.000 in 0.00 W/m2
03:34 47.0 °F 41.0 °F 30.4 in NNE 4 mph 4 mph 81% 0.000 in 0.00 W/m2
03:39 47.0 °F 41.0 °F 30.4 in NNE 4 mph 4 mph 81% 0.000 in 0.00 W/m2
03:44 47.0 °F 41.0 °F 30.4 in NNE 3 mph 3 mph 81% 0.000 in 0.00 W/m2
03:49 47.0 °F 41.0 °F 30.4 in NNE 4 mph 4 mph 81% 0.000 in 0.00 W/m2
03:54 47.0 °F 41.0 °F 30.4 in NE 2 mph 3 mph 80% 0.000 in 0.00 W/m2
03:59 47.0 °F 41.0 °F 30.4 in NE 3 mph 4 mph 80% 0.000 in 0.00 W/m2
04:04 47.0 °F 41.0 °F 30.4 in NE 3 mph 3 mph 80% 0.000 in 0.00 W/m2
04:09 47.0 °F 41.0 °F 30.4 in NE 2 mph 2 mph 80% 0.000 in 0.00 W/m2
04:14 47.0 °F 41.0 °F 30.4 in NE 3 mph 3 mph 80% 0.000 in 0.00 W/m2
04:19 47.0 °F 41.0 °F 30.4 in NE 2 mph 2 mph 79% 0.000 in 0.00 W/m2
04:24 47.0 °F 41.0 °F 30.4 in NE 3 mph 3 mph 79% 0.000 in 0.00 W/m2
04:29 47.0 °F 41.0 °F 30.4 in NNE 3 mph 3 mph 79% 0.000 in 0.00 W/m2
04:34 47.0 °F 41.0 °F 30.4 in ENE 3 mph 4 mph 79% 0.000 in 0.00 W/m2
04:39 47.0 °F 41.0 °F 30.4 in NE 3 mph 3 mph 79% 0.000 in 0.00 W/m2
04:44 47.0 °F 41.0 °F 30.4 in East 3 mph 3 mph 78% 0.000 in 0.00 W/m2
04:49 47.0 °F 41.0 °F 30.4 in ENE 3 mph 3 mph 78% 0.000 in 0.00 W/m2
04:54 47.0 °F 41.0 °F 30.4 in NE 3 mph 3 mph 78% 0.000 in 0.00 W/m2
04:59 47.0 °F 41.0 °F 30.4 in East 3 mph 3 mph 78% 0.000 in 0.00 W/m2
05:04 47.0 °F 41.0 °F 30.4 in NE 3 mph 3 mph 78% 0.000 in 0.00 W/m2
05:09 47.0 °F 41.0 °F 30.4 in NE 1 mph 1 mph 78% 0.000 in 0.00 W/m2
05:14 47.0 °F 40.0 °F 30.4 in NE 1 mph 1 mph 77% 0.000 in 0.00 W/m2
05:19 47.0 °F 41.0 °F 30.4 in NE 1 mph 1 mph 77% 0.000 in 0.00 W/m2
05:24 47.0 °F 41.0 °F 30.4 in Calm   1 mph 77% 0.000 in 0.00 W/m2
05:29 47.0 °F 41.0 °F 30.4 in NE 3 mph 3 mph 77% 0.000 in 0.00 W/m2
05:34 47.0 °F 41.0 °F 30.4 in NE 2 mph 2 mph 77% 0.000 in 0.00 W/m2
05:39 48.0 °F 41.0 °F 30.4 in NE 1 mph 2 mph 77% 0.000 in 0.00 W/m2
05:44 48.0 °F 41.0 °F 30.4 in NE 1 mph 1 mph 77% 0.000 in 0.00 W/m2
05:49 48.0 °F 41.0 °F 30.4 in NE 1 mph 2 mph 77% 0.000 in 0.00 W/m2
05:54 48.0 °F 41.0 °F 30.4 in NE 1 mph 1 mph 77% 0.000 in 0.00 W/m2
05:59 48.0 °F 41.0 °F 30.4 in NE 2 mph 2 mph 77% 0.000 in 0.00 W/m2
06:04 48.0 °F 41.0 °F 30.4 in NE 2 mph 3 mph 77% 0.000 in 0.00 W/m2
06:09 48.0 °F 41.0 °F 30.4 in NE 1 mph 2 mph 77% 0.000 in 0.00 W/m2
06:14 48.0 °F 41.0 °F 30.4 in Calm   1 mph 77% 0.000 in 0.00 W/m2
06:19 48.0 °F 41.0 °F 30.4 in NE 1 mph 1 mph 77% 0.000 in 0.00 W/m2
06:24 48.0 °F 41.0 °F 30.4 in NE 2 mph 2 mph 77% 0.000 in 0.00 W/m2
06:29 48.0 °F 41.0 °F 30.4 in NE 2 mph 2 mph 77% 0.000 in 0.00 W/m2
06:34 48.0 °F 41.0 °F 30.4 in NE 2 mph 2 mph 77% 0.000 in 0.00 W/m2
06:39 48.0 °F 41.0 °F 30.4 in NE 3 mph 3 mph 78% 0.000 in 0.00 W/m2
06:44 48.0 °F 41.0 °F 30.4 in NNE 2 mph 2 mph 78% 0.000 in 0.00 W/m2
06:49 48.0 °F 41.0 °F 30.4 in NNE 4 mph 4 mph 78% 0.000 in 0.00 W/m2
06:54 48.0 °F 41.0 °F 30.4 in North 2 mph 3 mph 78% 0.000 in 0.00 W/m2
06:59 48.0 °F 41.0 °F 30.4 in North 3 mph 3 mph 78% 0.000 in 0.00 W/m2
07:04 48.0 °F 41.0 °F 30.4 in North 2 mph 3 mph 78% 0.000 in 0.00 W/m2
07:09 48.0 °F 41.0 °F 30.4 in North 2 mph 2 mph 78% 0.000 in 0.00 W/m2
07:14 48.0 °F 41.0 °F 30.4 in North 3 mph 3 mph 78% 0.000 in 0.00 W/m2
07:19 48.0 °F 41.0 °F 30.4 in North 2 mph 3 mph 78% 0.000 in 0.00 W/m2
07:24 48.0 °F 41.0 °F 30.4 in North 2 mph 2 mph 78% 0.000 in 0.00 W/m2
07:29 48.0 °F 42.0 °F 30.4 in North 1 mph 2 mph 79% 0.000 in 0.00 W/m2
07:34 48.0 °F 42.0 °F 30.4 in North 3 mph 3 mph 79% 0.000 in 7.00 W/m2
07:39 48.0 °F 42.0 °F 30.4 in North 3 mph 3 mph 79% 0.000 in 9.00 W/m2
07:44 48.0 °F 42.0 °F 30.4 in North 2 mph 2 mph 79% 0.000 in 11.00 W/m2
07:49 48.0 °F 42.0 °F 30.4 in NNE 3 mph 3 mph 79% 0.000 in 12.00 W/m2
07:54 48.0 °F 42.0 °F 30.4 in NNE 2 mph 3 mph 79% 0.000 in 14.00 W/m2
07:59 48.0 °F 42.0 °F 30.4 in NNE 2 mph 2 mph 79% 0.000 in 16.00 W/m2
08:04 48.0 °F 42.0 °F 30.4 in NNE 2 mph 3 mph 79% 0.000 in 19.00 W/m2
08:09 48.0 °F 42.0 °F 30.4 in NNE 2 mph 3 mph 79% 0.000 in 21.00 W/m2
08:14 48.0 °F 42.0 °F 30.4 in NNE 2 mph 3 mph 79% 0.000 in 21.00 W/m2
08:19 48.0 °F 41.0 °F 30.4 in NE 3 mph 3 mph 78% 0.000 in 25.00 W/m2
08:24 48.0 °F 42.0 °F 30.4 in NE 2 mph 2 mph 78% 0.000 in 33.00 W/m2
08:29 48.0 °F 42.0 °F 30.4 in NE 2 mph 2 mph 78% 0.000 in 47.00 W/m2
08:34 48.0 °F 42.0 °F 30.4 in NE 3 mph 3 mph 78% 0.000 in 62.00 W/m2
08:39 48.0 °F 42.0 °F 30.4 in NE 2 mph 2 mph 78% 0.000 in 70.00 W/m2
08:44 49.0 °F 42.0 °F 30.4 in NE 2 mph 3 mph 77% 0.000 in 72.00 W/m2
08:49 49.0 °F 42.0 °F 30.4 in NE 2 mph 3 mph 77% 0.000 in 62.00 W/m2
08:54 49.0 °F 42.0 °F 30.4 in ENE 3 mph 3 mph 76% 0.000 in 62.00 W/m2
08:59 49.0 °F 42.0 °F 30.4 in East 3 mph 3 mph 76% 0.000 in 70.00 W/m2
09:04 49.0 °F 42.0 °F 30.4 in ENE 4 mph 4 mph 75% 0.000 in 74.00 W/m2
09:09 49.0 °F 41.0 °F 30.4 in NNE 4 mph 4 mph 74% 0.000 in 62.00 W/m2
09:14 50.0 °F 42.0 °F 30.4 in NNE 2 mph 3 mph 74% 0.000 in 54.00 W/m2
09:19 50.0 °F 41.0 °F 30.4 in NNE 2 mph 3 mph 73% 0.000 in 49.00 W/m2
09:24 50.0 °F 41.0 °F 30.4 in NE 2 mph 3 mph 72% 0.000 in 44.00 W/m2
09:29 50.0 °F 41.0 °F 30.4 in East 3 mph 3 mph 71% 0.000 in 53.00 W/m2
09:34 50.0 °F 41.0 °F 30.4 in East 2 mph 3 mph 70% 0.000 in 62.00 W/m2
09:39 50.0 °F 41.0 °F 30.4 in ENE 3 mph 4 mph 69% 0.000 in 81.00 W/m2
09:44 50.0 °F 41.0 °F 30.4 in East 2 mph 4 mph 69% 0.000 in 86.00 W/m2
09:49 50.0 °F 41.0 °F 30.4 in East 2 mph 3 mph 69% 0.000 in 93.00 W/m2
09:54 51.0 °F 41.0 °F 30.4 in ENE 3 mph 4 mph 69% 0.000 in 107.00 W/m2
09:59 51.0 °F 41.0 °F 30.4 in ENE 3 mph 3 mph 69% 0.000 in 109.00 W/m2
10:04 51.0 °F 41.0 °F 30.4 in NE 3 mph 3 mph 69% 0.000 in 121.00 W/m2
10:09 51.0 °F 41.0 °F 30.4 in ENE 2 mph 3 mph 68% 0.000 in 155.00 W/m2
10:14 51.0 °F 42.0 °F 30.4 in ENE 2 mph 2 mph 69% 0.000 in 163.00 W/m2
10:19 52.0 °F 42.0 °F 30.4 in ESE 3 mph 3 mph 69% 0.000 in 171.00 W/m2
10:24 52.0 °F 42.0 °F 30.4 in ESE 2 mph 3 mph 68% 0.000 in 165.00 W/m2
10:29 52.0 °F 42.0 °F 30.4 in ESE 3 mph 3 mph 67% 0.000 in 127.00 W/m2
10:34 53.0 °F 42.0 °F 30.4 in ENE 3 mph 3 mph 67% 0.000 in 102.00 W/m2
10:39 53.0 °F 42.0 °F 30.4 in ENE 2 mph 2 mph 66% 0.000 in 102.00 W/m2
10:44 53.0 °F 41.0 °F 30.4 in NNE 4 mph 4 mph 65% 0.000 in 95.00 W/m2
10:49 53.0 °F 41.0 °F 30.4 in NE 2 mph 2 mph 64% 0.000 in 74.00 W/m2
10:54 53.0 °F 41.0 °F 30.4 in NE 2 mph 3 mph 64% 0.000 in 69.00 W/m2
10:59 53.0 °F 41.0 °F 30.4 in NE 2 mph 2 mph 64% 0.000 in 81.00 W/m2
11:04 53.0 °F 41.0 °F 30.4 in NE 2 mph 2 mph 64% 0.000 in 91.00 W/m2
11:09 53.0 °F 41.0 °F 30.4 in NE 3 mph 3 mph 64% 0.000 in 90.00 W/m2
11:14 53.0 °F 42.0 °F 30.4 in NE 2 mph 2 mph 64% 0.000 in 118.00 W/m2
11:19 53.0 °F 41.0 °F 30.4 in ENE 3 mph 4 mph 63% 0.000 in 141.00 W/m2
11:24 54.0 °F 41.0 °F 30.4 in East 3 mph 3 mph 61% 0.000 in 137.00 W/m2
11:29 54.0 °F 41.0 °F 30.4 in ENE 3 mph 3 mph 62% 0.000 in 114.00 W/m2
11:34 54.0 °F 41.0 °F 30.4 in NE 3 mph 4 mph 62% 0.000 in 125.00 W/m2
11:39 54.0 °F 41.0 °F 30.4 in ENE 3 mph 3 mph 61% 0.000 in 163.00 W/m2
11:44 54.0 °F 41.0 °F 30.4 in ESE 4 mph 5 mph 61% 0.000 in 251.00 W/m2
11:49 55.0 °F 41.0 °F 30.4 in ESE 3 mph 5 mph 61% 0.000 in 295.00 W/m2
11:54 55.0 °F 42.0 °F 30.4 in East 3 mph 3 mph 61% 0.000 in 322.00 W/m2
11:59 56.0 °F 42.0 °F 30.4 in East 4 mph 4 mph 60% 0.000 in 369.00 W/m2
12:04 56.0 °F 43.0 °F 30.4 in SE 3 mph 4 mph 60% 0.000 in 355.00 W/m2
12:09 57.0 °F 43.0 °F 30.4 in SE 4 mph 4 mph 60% 0.000 in 355.00 W/m2
12:14 58.0 °F 43.0 °F 30.4 in SE 5 mph 5 mph 59% 0.000 in 455.00 W/m2
12:19 58.0 °F 43.0 °F 30.4 in South 6 mph 7 mph 58% 0.000 in 617.00 W/m2
12:24 59.0 °F 44.0 °F 30.4 in SE 3 mph 4 mph 58% 0.000 in 650.00 W/m2
12:29 59.0 °F 45.0 °F 30.4 in SSE 7 mph 8 mph 59% 0.000 in 715.00 W/m2
12:34 60.0 °F 45.0 °F 30.3 in SE 5 mph 6 mph 58% 0.000 in 673.00 W/m2
12:39 60.0 °F 46.0 °F 30.3 in SSE 6 mph 6 mph 58% 0.000 in 700.00 W/m2
12:44 61.0 °F 46.0 °F 30.3 in SE 7 mph 8 mph 58% 0.000 in 701.00 W/m2
12:49 62.0 °F 46.0 °F 30.3 in SE 7 mph 8 mph 58% 0.000 in 701.00 W/m2
12:54 61.0 °F 46.0 °F 30.3 in ESE 3 mph 6 mph 57% 0.000 in 633.00 W/m2
12:59 61.0 °F 46.0 °F 30.3 in ENE 2 mph 3 mph 57% 0.000 in 633.00 W/m2
13:04 61.0 °F 45.0 °F 30.3 in North 5 mph 6 mph 57% 0.000 in 708.00 W/m2
13:09 61.0 °F 46.0 °F 30.3 in SSW 4 mph 6 mph 58% 0.000 in 411.00 W/m2
13:14 61.0 °F 46.0 °F 30.3 in WSW 3 mph 4 mph 57% 0.000 in 506.00 W/m2
13:19 61.0 °F 46.0 °F 30.3 in SW 5 mph 5 mph 57% 0.000 in 371.00 W/m2
13:24 61.0 °F 45.0 °F 30.3 in West 4 mph 5 mph 56% 0.000 in 364.00 W/m2
13:29 61.0 °F 46.0 °F 30.3 in SW 4 mph 4 mph 57% 0.000 in 422.00 W/m2
13:34 62.0 °F 46.0 °F 30.3 in SSW 5 mph 5 mph 57% 0.000 in 538.00 W/m2
13:39 62.0 °F 46.0 °F 30.3 in SSE 5 mph 5 mph 55% 0.000 in 531.00 W/m2
13:44 62.0 °F 45.0 °F 30.3 in SW 6 mph 7 mph 54% 0.000 in 504.00 W/m2
13:49 62.0 °F 46.0 °F 30.3 in SSW 3 mph 7 mph 56% 0.000 in 455.00 W/m2
13:54 62.0 °F 46.0 °F 30.3 in South 4 mph 5 mph 56% 0.000 in 689.00 W/m2
13:59 63.0 °F 47.0 °F 30.3 in WSW 3 mph 3 mph 56% 0.000 in 638.00 W/m2
14:04 63.0 °F 46.0 °F 30.3 in SW 5 mph 5 mph 53% 0.000 in 582.00 W/m2
14:09 62.0 °F 45.0 °F 30.3 in WSW 4 mph 4 mph 53% 0.000 in 227.00 W/m2
14:14 62.0 °F 45.0 °F 30.3 in WNW 2 mph 3 mph 54% 0.000 in 227.00 W/m2
14:19 62.0 °F 46.0 °F 30.3 in SW 3 mph 3 mph 55% 0.000 in 185.00 W/m2
14:24 62.0 °F 46.0 °F 30.3 in SSW 2 mph 3 mph 55% 0.000 in 169.00 W/m2
14:29 62.0 °F 46.0 °F 30.3 in SSW 3 mph 3 mph 55% 0.000 in 188.00 W/m2
14:34 62.0 °F 46.0 °F 30.3 in South 3 mph 3 mph 56% 0.000 in 195.00 W/m2
14:39 62.0 °F 47.0 °F 30.3 in SSW 4 mph 4 mph 56% 0.000 in 216.00 W/m2
14:44 62.0 °F 46.0 °F 30.3 in SSW 3 mph 4 mph 55% 0.000 in 225.00 W/m2
14:49 62.0 °F 47.0 °F 30.3 in SSW 3 mph 3 mph 56% 0.000 in 223.00 W/m2
14:54 62.0 °F 46.0 °F 30.3 in SSW 2 mph 3 mph 55% 0.000 in 243.00 W/m2
14:59 62.0 °F 46.0 °F 30.3 in West 2 mph 3 mph 54% 0.000 in 243.00 W/m2
15:04 62.0 °F 45.0 °F 30.3 in NW 3 mph 3 mph 54% 0.000 in 223.00 W/m2
15:09 62.0 °F 45.0 °F 30.3 in SW 3 mph 3 mph 54% 0.000 in 236.00 W/m2
15:14 62.0 °F 45.0 °F 30.3 in SE 2 mph 3 mph 54% 0.000 in 260.00 W/m2
15:19 62.0 °F 45.0 °F 30.3 in SSW 3 mph 3 mph 54% 0.000 in 248.00 W/m2
15:24 62.0 °F 46.0 °F 30.3 in SSW 3 mph 3 mph 55% 0.000 in 239.00 W/m2
15:29 62.0 °F 46.0 °F 30.3 in West 3 mph 3 mph 55% 0.000 in 285.00 W/m2
15:34 63.0 °F 46.0 °F 30.3 in WSW 4 mph 5 mph 54% 0.000 in 193.00 W/m2
15:39 63.0 °F 46.0 °F 30.3 in SW 3 mph 3 mph 54% 0.000 in 174.00 W/m2
15:44 63.0 °F 46.0 °F 30.3 in SW 3 mph 3 mph 54% 0.000 in 153.00 W/m2
15:49 63.0 °F 46.0 °F 30.3 in SW 3 mph 3 mph 54% 0.000 in 151.00 W/m2
15:54 63.0 °F 45.0 °F 30.3 in NNW 4 mph 4 mph 53% 0.000 in 142.00 W/m2
15:59 63.0 °F 45.0 °F 30.3 in NNE 3 mph 3 mph 53% 0.000 in 127.00 W/m2
16:04 62.0 °F 46.0 °F 30.3 in NE 2 mph 3 mph 54% 0.000 in 121.00 W/m2
16:09 62.0 °F 46.0 °F 30.3 in SE 2 mph 2 mph 54% 0.000 in 120.00 W/m2
16:14 62.0 °F 46.0 °F 30.3 in SSW 3 mph 3 mph 54% 0.000 in 111.00 W/m2
16:19 62.0 °F 45.0 °F 30.3 in NNW 3 mph 4 mph 54% 0.000 in 86.00 W/m2
16:24 62.0 °F 45.0 °F 30.3 in NW 3 mph 3 mph 54% 0.000 in 79.00 W/m2
16:29 62.0 °F 45.0 °F 30.3 in WSW 2 mph 2 mph 54% 0.000 in 74.00 W/m2
16:34 62.0 °F 46.0 °F 30.3 in WSW 2 mph 3 mph 55% 0.000 in 69.00 W/m2
16:39 62.0 °F 46.0 °F 30.3 in SW 2 mph 2 mph 56% 0.000 in 65.00 W/m2
16:44 62.0 °F 46.0 °F 30.3 in SW 2 mph 2 mph 56% 0.000 in 46.00 W/m2
16:49 62.0 °F 46.0 °F 30.3 in SW 3 mph 3 mph 56% 0.000 in 35.00 W/m2
16:54 62.0 °F 46.0 °F 30.3 in SW 3 mph 3 mph 56% 0.000 in 42.00 W/m2
16:59 62.0 °F 45.0 °F 30.3 in SW 1 mph 2 mph 55% 0.000 in 39.00 W/m2
17:04 61.0 °F 46.0 °F 30.3 in SW 2 mph 2 mph 56% 0.000 in 32.00 W/m2
17:09 61.0 °F 46.0 °F 30.3 in SW 1 mph 1 mph 56% 0.000 in 30.00 W/m2
17:14 61.0 °F 45.0 °F 30.3 in SW 1 mph 2 mph 56% 0.000 in 25.00 W/m2
17:19 61.0 °F 45.0 °F 30.3 in SW 1 mph 1 mph 56% 0.000 in 19.00 W/m2
17:24 61.0 °F 45.0 °F 30.3 in SW 1 mph 2 mph 56% 0.000 in 14.00 W/m2
17:29 61.0 °F 45.0 °F 30.3 in SW 2 mph 2 mph 56% 0.000 in 11.00 W/m2
17:34 61.0 °F 45.0 °F 30.3 in SW 2 mph 2 mph 57% 0.000 in 7.00 W/m2
17:39 61.0 °F 45.0 °F 30.3 in SW 1 mph 2 mph 57% 0.000 in 0.00 W/m2
17:44 60.0 °F 45.0 °F 30.3 in SW 1 mph 1 mph 57% 0.000 in 0.00 W/m2
17:49 60.0 °F 45.0 °F 30.3 in SW 2 mph 2 mph 57% 0.000 in 0.00 W/m2
17:54 60.0 °F 45.0 °F 30.3 in SW 1 mph 2 mph 58% 0.000 in 0.00 W/m2
17:59 60.0 °F 45.0 °F 30.3 in SW 1 mph 1 mph 58% 0.000 in 0.00 W/m2
18:04 60.0 °F 45.0 °F 30.3 in Calm   1 mph 58% 0.000 in 0.00 W/m2
18:09 60.0 °F 45.0 °F 30.3 in SW 1 mph 1 mph 59% 0.000 in 0.00 W/m2
18:14 60.0 °F 45.0 °F 30.3 in SW 1 mph 1 mph 59% 0.000 in 0.00 W/m2
18:19 60.0 °F 45.0 °F 30.3 in SW 1 mph 1 mph 59% 0.000 in 0.00 W/m2
18:24 59.0 °F 46.0 °F 30.3 in SW 2 mph 2 mph 60% 0.000 in 0.00 W/m2
18:29 59.0 °F 45.0 °F 30.3 in SW 2 mph 2 mph 60% 0.000 in 0.00 W/m2
18:34 59.0 °F 45.0 °F 30.3 in SW 1 mph 2 mph 60% 0.000 in 0.00 W/m2
18:39 59.0 °F 45.0 °F 30.3 in SW 1 mph 1 mph 60% 0.000 in 0.00 W/m2
18:44 59.0 °F 45.0 °F 30.3 in SW 1 mph 1 mph 61% 0.000 in 0.00 W/m2
18:49 58.0 °F 45.0 °F 30.3 in SW 1 mph 1 mph 61% 0.000 in 0.00 W/m2
18:54 58.0 °F 45.0 °F 30.3 in SW 1 mph 1 mph 62% 0.000 in 0.00 W/m2
18:59 57.0 °F 44.0 °F 30.3 in Calm     62% 0.000 in 0.00 W/m2
19:04 57.0 °F 44.0 °F 30.3 in SW 1 mph 1 mph 63% 0.000 in 0.00 W/m2
19:09 57.0 °F 44.0 °F 30.3 in SW 1 mph 1 mph 64% 0.000 in 0.00 W/m2
19:14 57.0 °F 45.0 °F 30.3 in SW 1 mph 1 mph 65% 0.000 in 0.00 W/m2
19:19 56.0 °F 45.0 °F 30.3 in SW 2 mph 2 mph 66% 0.000 in 0.00 W/m2
19:24 56.0 °F 45.0 °F 30.3 in Calm     66% 0.000 in 0.00 W/m2
19:29 55.0 °F 44.0 °F 30.3 in SW 1 mph 1 mph 67% 0.000 in 0.00 W/m2
19:34 55.0 °F 44.0 °F 30.3 in Calm     67% 0.000 in 0.00 W/m2
19:39 55.0 °F 44.0 °F 30.3 in Calm     68% 0.000 in 0.00 W/m2
19:44 55.0 °F 44.0 °F 30.3 in Calm   1 mph 68% 0.000 in 0.00 W/m2
19:49 54.0 °F 44.0 °F 30.3 in Calm     69% 0.000 in 0.00 W/m2
19:54 54.0 °F 44.0 °F 30.3 in Calm     69% 0.000 in 0.00 W/m2
19:59 53.0 °F 44.0 °F 30.3 in Calm     69% 0.000 in 0.00 W/m2
20:04 53.0 °F 44.0 °F 30.3 in Calm     70% 0.000 in 0.00 W/m2
20:09 53.0 °F 43.0 °F 30.3 in Calm     70% 0.000 in 0.00 W/m2
20:14 52.0 °F 43.0 °F 30.3 in Calm     70% 0.000 in 0.00 W/m2
20:19 52.0 °F 43.0 °F 30.3 in Calm     71% 0.000 in 0.00 W/m2
20:24 52.0 °F 43.0 °F 30.3 in Calm     71% 0.000 in 0.00 W/m2
20:29 52.0 °F 42.0 °F 30.3 in SW 1 mph 1 mph 71% 0.000 in 0.00 W/m2
20:34 51.0 °F 42.0 °F 30.3 in Calm   1 mph 71% 0.000 in 0.00 W/m2
20:39 51.0 °F 42.0 °F 30.3 in SW 1 mph 1 mph 71% 0.000 in 0.00 W/m2
20:44 51.0 °F 42.0 °F 30.3 in Calm   1 mph 71% 0.000 in 0.00 W/m2
20:49 51.0 °F 42.0 °F 30.3 in SW 2 mph 2 mph 72% 0.000 in 0.00 W/m2
20:54 51.0 °F 42.0 °F 30.3 in SW 2 mph 2 mph 73% 0.000 in 0.00 W/m2
20:59 50.0 °F 42.0 °F 30.3 in SW 1 mph 2 mph 73% 0.000 in 0.00 W/m2
21:04 50.0 °F 42.0 °F 30.3 in Calm     74% 0.000 in 0.00 W/m2
21:09 50.0 °F 42.0 °F 30.3 in Calm     74% 0.000 in 0.00 W/m2
21:14 50.0 °F 42.0 °F 30.3 in SW 1 mph 1 mph 74% 0.000 in 0.00 W/m2
21:19 50.0 °F 42.0 °F 30.3 in Calm     75% 0.000 in 0.00 W/m2
21:24 50.0 °F 42.0 °F 30.3 in Calm     75% 0.000 in 0.00 W/m2
21:29 50.0 °F 42.0 °F 30.3 in Calm     75% 0.000 in 0.00 W/m2
21:34 50.0 °F 42.0 °F 30.3 in Calm     75% 0.000 in 0.00 W/m2
21:39 50.0 °F 42.0 °F 30.3 in Calm     76% 0.000 in 0.00 W/m2
21:44 49.0 °F 42.0 °F 30.3 in Calm     76% 0.000 in 0.00 W/m2
21:49 49.0 °F 42.0 °F 30.3 in Calm     75% 0.000 in 0.00 W/m2
21:54 49.0 °F 42.0 °F 30.3 in Calm   1 mph 76% 0.000 in 0.00 W/m2
21:59 49.0 °F 42.0 °F 30.3 in SW 1 mph 1 mph 76% 0.000 in 0.00 W/m2
22:04 49.0 °F 41.0 °F 30.3 in SW 2 mph 2 mph 76% 0.000 in 0.00 W/m2
22:09 48.0 °F 41.0 °F 30.3 in SW 2 mph 2 mph 76% 0.000 in 0.00 W/m2
22:14 48.0 °F 42.0 °F 30.3 in SW 1 mph 2 mph 77% 0.000 in 0.00 W/m2
22:19 48.0 °F 41.0 °F 30.3 in SW 1 mph 1 mph 77% 0.000 in 0.00 W/m2
22:24 48.0 °F 42.0 °F 30.3 in SW 1 mph 2 mph 78% 0.000 in 0.00 W/m2
22:29 48.0 °F 42.0 °F 30.3 in SW 1 mph 1 mph 78% 0.000 in 0.00 W/m2
22:34 48.0 °F 42.0 °F 30.3 in SW 1 mph 1 mph 79% 0.000 in 0.00 W/m2
22:39 48.0 °F 42.0 °F 30.3 in SW 1 mph 1 mph 79% 0.000 in 0.00 W/m2
22:44 48.0 °F 42.0 °F 30.3 in SW 1 mph 1 mph 79% 0.000 in 0.00 W/m2
22:49 48.0 °F 42.0 °F 30.3 in SW 2 mph 2 mph 80% 0.000 in 0.00 W/m2
22:54 48.0 °F 42.0 °F 30.3 in SW 2 mph 2 mph 80% 0.000 in 0.00 W/m2
22:59 48.0 °F 42.0 °F 30.3 in Calm   1 mph 80% 0.000 in 0.00 W/m2
23:04 48.0 °F 42.0 °F 30.3 in Calm     80% 0.000 in 0.00 W/m2
23:09 48.0 °F 42.0 °F 30.3 in Calm     80% 0.000 in 0.00 W/m2
23:14 48.0 °F 42.0 °F 30.3 in Calm     80% 0.000 in 0.00 W/m2
23:19 48.0 °F 42.0 °F 30.3 in SW 2 mph 2 mph 80% 0.000 in 0.00 W/m2
23:24 48.0 °F 42.0 °F 30.3 in SW 2 mph 3 mph 80% 0.000 in 0.00 W/m2
23:29 48.0 °F 42.0 °F 30.3 in SW 1 mph 2 mph 81% 0.000 in 0.00 W/m2
23:34 48.0 °F 42.0 °F 30.3 in SW 1 mph 2 mph 81% 0.000 in 0.00 W/m2
23:39 48.0 °F 42.0 °F 30.3 in SW 2 mph 2 mph 81% 0.000 in 0.00 W/m2
23:44 47.0 °F 42.0 °F 30.3 in SW 2 mph 2 mph 81% 0.000 in 0.00 W/m2
23:49 47.0 °F 42.0 °F 30.3 in SW 2 mph 2 mph 81% 0.000 in 0.00 W/m2
23:54 47.0 °F 42.0 °F 30.3 in SW 1 mph 1 mph 81% 0.000 in 0.00 W/m2
23:59 47.0 °F 41.0 °F 30.3 in SW 1 mph 1 mph 81% 0.000 in 0.00 W/m2
Villages of Bridgestone, Spring, TX USA
Compliments of Weather Underground - 4 mb